Time;durP1;ratioP1;P1;durP2;ratioP2;P2;SDS_P1;SDS_P2;PMS_P1;PMS_P2;Temp;Humidity;BMP_temperature;BMP_pressure;BME280_temperature;BME280_humidity;BME280_pressure;Samples;Min_cycle;Max_cycle;Signal;HPM_P1;HPM_P2
2022/12/11 05:22:32;;;;;;;22.83;8.13;;;;;;;-2.27;100.00;99753.19;5088797;28;20331;-67
2022/12/11 05:24:57;;;;;;;28.15;8.25;;;;;;;-2.26;100.00;99754.00;5087717;28;20109;-67
2022/12/11 05:27:23;;;;;;;35.85;9.68;;;;;;;-2.24;100.00;99746.91;5088764;28;20036;-67
2022/12/11 05:29:48;;;;;;;24.55;9.07;;;;;;;-2.21;100.00;99747.53;5088718;28;20389;-66
2022/12/11 05:32:14;;;;;;;31.83;8.20;;;;;;;-2.26;100.00;99746.19;5088952;28;20032;-66
2022/12/11 05:34:39;;;;;;;30.95;9.63;;;;;;;-2.21;100.00;99749.31;5088784;28;20414;-66
2022/12/11 05:37:05;;;;;;;31.35;9.20;;;;;;;-2.16;100.00;99746.38;5088622;28;20036;-66
2022/12/11 05:39:30;;;;;;;38.50;11.27;;;;;;;-2.20;100.00;99746.59;5088711;28;20036;-66
2022/12/11 05:41:55;;;;;;;40.72;11.88;;;;;;;-2.21;100.00;99741.50;5087096;28;20039;-66
2022/12/11 05:44:21;;;;;;;28.42;9.65;;;;;;;-2.19;100.00;99737.84;5088591;28;20218;-66
2022/12/11 05:46:46;;;;;;;33.85;13.90;;;;;;;-2.20;100.00;99730.94;5088447;28;20032;-66
2022/12/11 05:49:12;;;;;;;28.10;10.50;;;;;;;-2.22;100.00;99742.41;5088625;28;20507;-65
2022/12/11 05:51:38;;;;;;;23.58;10.07;;;;;;;-2.19;100.00;99743.06;5086911;28;20036;-65
2022/12/11 05:54:05;;;;;;;29.38;9.57;;;;;;;-2.15;100.00;99742.81;5088419;28;20044;-67
2022/12/11 05:56:32;;;;;;;22.70;8.25;;;;;;;-2.18;100.00;99746.50;5088326;28;20036;-66
2022/12/11 05:58:59;;;;;;;25.75;10.05;;;;;;;-2.17;100.00;99740.31;5087088;28;20093;-66
2022/12/11 06:01:28;;;;;;;28.20;9.20;;;;;;;-2.20;100.00;99740.56;5087986;28;20040;-66
2022/12/11 06:03:54;;;;;;;23.70;9.30;;;;;;;-2.13;100.00;99739.19;5088224;28;20098;-66
2022/12/11 06:06:20;;;;;;;28.38;10.35;;;;;;;-2.13;100.00;99733.13;5088133;28;20043;-66
2022/12/11 06:08:52;;;;;;;30.23;10.10;;;;;;;-2.10;100.00;99731.13;5088101;28;20048;-66
2022/12/11 06:11:18;;;;;;;24.67;9.48;;;;;;;-2.14;100.00;99723.66;5087757;28;20051;-66
2022/12/11 06:13:44;;;;;;;30.13;9.35;;;;;;;-2.12;100.00;99722.59;5086747;28;20433;-66
2022/12/11 06:16:09;;;;;;;30.02;11.63;;;;;;;-2.06;100.00;99718.72;5088299;28;20142;-65
2022/12/11 06:18:40;;;;;;;30.05;11.20;;;;;;;-2.08;100.00;99723.22;5087987;28;20085;-65
2022/12/11 06:21:22;;;;;;;36.38;10.10;;;;;;;-2.07;100.00;99720.50;5087561;28;20039;-66
2022/12/11 06:23:49;;;;;;;33.20;11.90;;;;;;;-2.08;100.00;99726.66;5086561;28;20032;-65
2022/12/11 06:26:16;;;;;;;33.58;11.27;;;;;;;-2.05;100.00;99720.38;5087775;28;20374;-66
2022/12/11 06:28:41;;;;;;;32.30;10.95;;;;;;;-1.98;100.00;99719.84;5088031;28;20121;-65
2022/12/11 06:31:07;;;;;;;21.98;9.25;;;;;;;-2.02;100.00;99728.84;5087507;28;20622;-65
2022/12/11 06:33:33;;;;;;;34.00;12.23;;;;;;;-2.01;100.00;99716.63;5072791;28;20033;-66
2022/12/11 06:36:23;;;;;;;37.90;11.55;;;;;;;-2.03;100.00;99715.88;5074094;28;20161;-66
2022/12/11 06:38:49;;;;;;;25.33;9.45;;;;;;;-2.00;100.00;99711.31;5073528;28;20052;-66
2022/12/11 06:41:15;;;;;;;32.72;10.32;;;;;;;-2.01;100.00;99717.47;5073722;28;20060;-65
2022/12/11 06:43:41;;;;;;;36.85;10.02;;;;;;;-2.10;100.00;99710.25;5074056;28;20029;-65
2022/12/11 06:46:12;;;;;;;33.25;10.30;;;;;;;-2.08;100.00;99715.41;5073902;28;20051;-65
2022/12/11 06:48:39;;;;;;;27.52;11.48;;;;;;;-2.22;100.00;99706.75;5074033;28;20093;-66
2022/12/11 06:51:11;;;;;;;25.58;10.55;;;;;;;-2.17;100.00;99716.84;5073714;28;20037;-65
2022/12/11 06:53:37;;;;;;;30.65;11.73;;;;;;;-2.17;100.00;99714.22;5073822;28;20040;-67
2022/12/11 06:56:11;;;;;;;28.98;9.80;;;;;;;-2.14;100.00;99707.97;5073750;28;20039;-66
2022/12/11 06:58:38;;;;;;;32.33;11.52;;;;;;;-2.16;100.00;99723.72;5072705;28;20040;-65
2022/12/11 07:01:12;;;;;;;29.35;10.40;;;;;;;-2.20;100.00;99720.50;5072198;28;20029;-65
2022/12/11 07:03:37;;;;;;;26.55;10.05;;;;;;;-2.20;100.00;99725.72;5074255;28;20051;-65
2022/12/11 07:06:03;;;;;;;32.53;11.70;;;;;;;-2.21;100.00;99728.44;5073781;28;20032;-65
2022/12/11 07:08:30;;;;;;;27.10;10.27;;;;;;;-2.19;100.00;99726.56;5073609;28;20046;-66
2022/12/11 07:11:02;;;;;;;36.63;10.30;;;;;;;-2.21;100.00;99726.66;5073172;28;20036;-65
2022/12/11 07:13:27;;;;;;;27.10;9.18;;;;;;;-2.23;100.00;99725.91;5073567;28;20044;-64
2022/12/11 07:15:53;;;;;;;26.10;10.07;;;;;;;-2.16;100.00;99730.72;5073464;28;20032;-65
2022/12/11 07:18:18;;;;;;;35.67;12.02;;;;;;;-2.12;100.00;99730.41;5073264;28;20047;-66
2022/12/11 07:20:43;;;;;;;38.78;12.80;;;;;;;-2.11;100.00;99731.25;5072841;28;20103;-64
2022/12/11 07:23:09;;;;;;;30.85;12.40;;;;;;;-2.10;100.00;99728.53;5073296;28;20040;-66
2022/12/11 07:25:36;;;;;;;26.50;9.45;;;;;;;-2.11;100.00;99726.88;5073228;28;20116;-65
2022/12/11 07:28:01;;;;;;;31.13;11.35;;;;;;;-2.08;100.00;99729.28;5073253;28;20079;-64
2022/12/11 07:30:26;;;;;;;34.08;12.50;;;;;;;-2.07;100.00;99725.72;5072722;28;20076;-65
2022/12/11 07:32:52;;;;;;;35.38;12.75;;;;;;;-2.03;100.00;99721.94;5073252;28;20068;-66
2022/12/11 07:35:17;;;;;;;30.90;10.07;;;;;;;-1.96;100.00;99735.41;5073183;28;20045;-66
2022/12/11 07:37:44;;;;;;;26.02;10.40;;;;;;;-1.95;100.00;99726.66;5073056;28;20036;-65
2022/12/11 07:40:10;;;;;;;26.90;10.82;;;;;;;-1.93;100.00;99737.81;5071743;28;20036;-66
2022/12/11 07:42:35;;;;;;;33.53;9.75;;;;;;;-1.94;100.00;99731.75;5072787;28;20512;-65
2022/12/11 07:45:01;;;;;;;26.05;10.20;;;;;;;-1.86;100.00;99739.06;5072006;28;20047;-66
2022/12/11 07:47:26;;;;;;;24.52;9.95;;;;;;;-1.83;100.00;99738.84;5072872;28;20074;-67
2022/12/11 07:49:52;;;;;;;26.40;9.80;;;;;;;-1.82;100.00;99737.91;5072748;28;20045;-64
2022/12/11 07:52:17;;;;;;;32.15;10.15;;;;;;;-1.84;100.00;99738.94;5071195;28;20497;-66
2022/12/11 07:54:42;;;;;;;34.42;11.27;;;;;;;-1.85;100.00;99737.28;5072723;28;20123;-67
2022/12/11 07:57:08;;;;;;;35.38;11.18;;;;;;;-1.81;100.00;99731.75;5072631;28;20064;-66
2022/12/11 07:59:33;;;;;;;35.10;10.48;;;;;;;-1.78;100.00;99741.13;5068324;28;20983;-65
2022/12/11 08:01:59;;;;;;;28.05;9.65;;;;;;;-1.74;100.00;99740.00;5064736;28;20048;-66
2022/12/11 08:04:24;;;;;;;32.78;10.68;;;;;;;-1.75;100.00;99741.75;5072865;28;20040;-65
2022/12/11 08:06:49;;;;;;;21.75;10.70;;;;;;;-1.69;100.00;99740.50;5072455;28;20123;-65
2022/12/11 08:09:15;;;;;;;34.92;10.27;;;;;;;-1.60;100.00;99747.69;5072443;28;20494;-67
2022/12/11 08:11:40;;;;;;;29.48;10.00;;;;;;;-1.59;100.00;99745.91;5071421;28;20119;-61
2022/12/11 08:14:07;;;;;;;32.38;11.05;;;;;;;-1.55;100.00;99750.81;5072003;28;20036;-63
2022/12/11 08:16:33;;;;;;;31.25;10.65;;;;;;;-1.57;100.00;99750.06;5071944;28;20072;-67
2022/12/11 08:18:58;;;;;;;25.75;10.38;;;;;;;-1.53;100.00;99745.47;5071956;28;20566;-64
2022/12/11 08:21:26;;;;;;;26.20;8.88;;;;;;;-1.49;100.00;99749.56;5071499;28;20044;-65
2022/12/11 08:23:52;;;;;;;28.45;10.13;;;;;;;-1.49;100.00;99741.72;5085853;28;20077;-63
2022/12/11 08:26:22;;;;;;;28.08;9.10;;;;;;;-1.44;100.00;99750.03;5092201;28;20040;-64
2022/12/11 08:28:47;;;;;;;35.10;9.73;;;;;;;-1.48;100.00;99746.00;5092247;28;20428;-65
2022/12/11 08:31:14;;;;;;;22.10;8.30;;;;;;;-1.39;100.00;99746.16;5091512;28;20043;-65
2022/12/11 08:33:41;;;;;;;25.58;8.05;;;;;;;-1.40;100.00;99747.09;5091982;28;20107;-65
2022/12/11 08:36:10;;;;;;;24.90;9.20;;;;;;;-1.32;100.00;99754.38;5092195;28;20055;-66
2022/12/11 08:38:37;;;;;;;26.65;8.65;;;;;;;-1.34;100.00;99745.00;5068362;28;20048;-63
2022/12/11 08:41:13;;;;;;;21.50;8.98;;;;;;;-1.35;100.00;99749.41;5052725;28;20024;-63
2022/12/11 08:43:39;;;;;;;25.90;7.20;;;;;;;-1.35;100.00;99751.19;5052657;28;20123;-65
2022/12/11 08:46:06;;;;;;;23.58;10.05;;;;;;;-1.34;100.00;99745.00;5062189;28;20048;-62
2022/12/11 08:48:32;;;;;;;32.47;11.02;;;;;;;-1.38;100.00;99747.81;5062404;28;20043;-63
2022/12/11 08:51:03;;;;;;;20.55;8.05;;;;;;;-1.25;100.00;99744.34;5061578;28;20037;-64
2022/12/11 08:53:29;;;;;;;25.58;10.63;;;;;;;-1.23;100.00;99738.06;5064066;28;20411;-67
2022/12/11 08:56:00;;;;;;;26.70;9.60;;;;;;;-1.20;100.00;99737.00;5062909;28;20389;-65
2022/12/11 08:58:26;;;;;;;25.52;8.98;;;;;;;-1.12;100.00;99732.88;5061130;28;20041;-63
2022/12/11 09:00:51;;;;;;;27.70;10.70;;;;;;;-1.08;100.00;99736.13;5060867;28;20040;-65
2022/12/11 09:03:16;;;;;;;27.40;9.90;;;;;;;-1.06;100.00;99726.38;5060363;28;20029;-65
2022/12/11 09:05:42;;;;;;;25.70;7.65;;;;;;;-1.05;100.00;99728.03;5067853;28;20397;-63
2022/12/11 09:08:07;;;;;;;30.30;9.77;;;;;;;-0.94;100.00;99729.88;5068013;28;20032;-63
2022/12/11 09:10:32;;;;;;;22.13;9.50;;;;;;;-0.97;100.00;99719.66;5060951;28;20529;-64
2022/12/11 09:12:58;;;;;;;16.88;7.75;;;;;;;-0.83;100.00;99725.53;5053248;28;20045;-63
2022/12/11 09:15:23;;;;;;;26.27;9.77;;;;;;;-0.71;100.00;99723.78;5061046;28;20059;-63
2022/12/11 09:17:49;;;;;;;24.05;8.70;;;;;;;-0.66;100.00;99718.19;5058723;28;20040;-63
2022/12/11 09:20:14;;;;;;;29.10;11.05;;;;;;;-0.63;100.00;99717.97;5060308;28;20434;-66
2022/12/11 09:22:41;;;;;;;26.77;10.18;;;;;;;-0.64;100.00;99721.56;5057737;28;20033;-66
2022/12/11 09:25:08;;;;;;;26.38;9.98;;;;;;;-0.63;100.00;99723.22;5065786;28;20029;-65
2022/12/11 09:27:34;;;;;;;30.35;10.30;;;;;;;-0.62;100.00;99719.66;5070644;28;20052;-66
2022/12/11 09:29:59;;;;;;;25.15;9.73;;;;;;;-0.66;100.00;99721.66;5069753;28;20037;-64
2022/12/11 09:32:25;;;;;;;28.90;9.65;;;;;;;-0.66;100.00;99728.66;5071017;28;20033;-66
2022/12/11 09:34:51;;;;;;;31.73;10.88;;;;;;;-0.69;100.00;99723.66;5066468;28;20496;-67
2022/12/11 09:37:16;;;;;;;25.15;10.40;;;;;;;-0.62;100.00;99727.50;5059751;28;20431;-68
2022/12/11 09:39:41;;;;;;;24.90;10.32;;;;;;;-0.59;100.00;99715.03;5061638;28;20036;-67
2022/12/11 09:42:18;;;;;;;28.92;11.05;;;;;;;-0.51;100.00;99724.09;5058945;28;20021;-65
2022/12/11 09:44:52;;;;;;;23.13;9.18;;;;;;;-0.45;100.00;99718.38;5059237;28;20040;-67
2022/12/11 09:47:20;;;;;;;33.65;10.85;;;;;;;-0.48;100.00;99724.66;5053244;28;20427;-67
2022/12/11 09:49:50;;;;;;;31.15;11.02;;;;;;;-0.40;100.00;99721.47;5069526;28;20029;-67
2022/12/11 09:52:35;;;;;;;26.88;10.25;;;;;;;-0.36;100.00;99717.69;5070010;28;20044;-66
2022/12/11 09:55:11;;;;;;;24.25;8.30;;;;;;;-0.45;100.00;99698.28;5071124;28;20038;-66
2022/12/11 09:58:05;;;;;;;29.40;9.35;;;;;;;-0.22;100.00;99703.53;5070866;28;20032;-66
2022/12/11 10:00:42;;;;;;;27.10;9.88;;;;;;;-0.20;100.00;99704.25;5063974;28;20044;-66
2022/12/11 10:03:17;;;;;;;34.47;10.02;;;;;;;-0.11;100.00;99712.25;5070806;28;20040;-67
2022/12/11 10:05:55;;;;;;;25.95;9.65;;;;;;;-0.02;100.00;99701.03;5068529;28;20043;-66
2022/12/11 10:08:35;;;;;;;;;;;;;;;-0.05;100.00;99692.59;5073211;28;20043;-67
2022/12/11 10:11:04;;;;;;;20.15;7.72;;;;;;;-0.08;100.00;99696.28;5073563;28;19920;-67
2022/12/11 10:13:34;;;;;;;25.38;9.18;;;;;;;-0.02;100.00;99687.13;5074577;28;20081;-66
2022/12/11 10:16:10;;;;;;;23.05;8.40;;;;;;;-0.02;100.00;99684.50;5074456;28;20531;-67
2022/12/11 10:18:37;;;;;;;21.05;9.88;;;;;;;-0.08;100.00;99684.97;5074371;28;20382;-66
2022/12/11 10:21:03;;;;;;;22.50;9.98;;;;;;;0.00;100.00;99680.00;5067468;28;20481;-67
2022/12/11 10:23:59;;;;;;;24.30;8.88;;;;;;;0.01;100.00;99686.06;5064556;28;20047;-67
2022/12/11 10:26:28;;;;;;;21.05;8.43;;;;;;;0.03;100.00;99674.50;5064851;28;20162;-67
2022/12/11 10:28:59;;;;;;;23.00;9.48;;;;;;;0.10;100.00;99669.63;5074347;28;20036;-67
2022/12/11 10:31:39;;;;;;;35.78;12.07;;;;;;;0.10;100.00;99667.84;5073064;28;20397;-66
2022/12/11 10:34:13;;;;;;;26.13;9.85;;;;;;;0.20;100.00;99663.56;5073970;28;20040;-66
2022/12/11 10:36:40;;;;;;;24.50;8.40;;;;;;;0.18;100.00;99668.06;5072902;28;20485;-67
2022/12/11 10:39:17;;;;;;;28.45;9.60;;;;;;;0.26;100.00;99657.81;5063364;28;20655;-66
2022/12/11 10:41:46;;;;;;;25.85;10.40;;;;;;;0.20;100.00;99660.09;5069755;28;20068;-67
2022/12/11 10:44:18;;;;;;;27.05;9.38;;;;;;;0.20;100.00;99645.22;5070893;28;20124;-67
2022/12/11 10:46:46;;;;;;;18.83;8.77;;;;;;;0.21;100.00;99649.50;5073576;28;20048;-66
2022/12/11 10:49:24;;;;;;;32.70;9.80;;;;;;;0.29;100.00;99653.28;5073717;28;20065;-66
2022/12/11 10:51:51;;;;;;;22.42;9.73;;;;;;;0.31;100.00;99644.34;5072908;28;20041;-66
2022/12/11 10:54:29;;;;;;;25.95;8.73;;;;;;;0.37;100.00;99637.78;5073853;28;20036;-67
2022/12/11 10:56:56;;;;;;;28.75;9.95;;;;;;;0.42;100.00;99643.50;5073536;28;20036;-67
2022/12/11 10:59:29;;;;;;;28.58;11.35;;;;;;;0.57;100.00;99642.25;5073509;28;20029;-67
2022/12/11 11:01:56;;;;;;;31.08;10.95;;;;;;;0.55;100.00;99638.94;5072695;28;20078;-67
2022/12/11 11:04:31;;;;;;;30.60;12.10;;;;;;;0.59;100.00;99636.88;5073891;28;20078;-67
2022/12/11 11:07:15;;;;;;;20.88;7.95;;;;;;;0.53;100.00;99635.59;5073413;28;20039;-67
2022/12/11 11:09:42;;;;;;;22.10;9.05;;;;;;;0.54;100.00;99624.16;5073712;28;20036;-66
2022/12/11 11:12:25;;;;;;;26.75;10.95;;;;;;;0.52;100.00;99632.16;5060501;28;20063;-66
2022/12/11 11:15:01;;;;;;;25.60;10.30;;;;;;;0.57;100.00;99629.13;5062612;28;20025;-67
2022/12/11 11:17:29;;;;;;;21.98;9.05;;;;;;;0.64;100.00;99622.44;5072925;28;20092;-66
2022/12/11 11:19:57;;;;;;;24.70;9.10;;;;;;;0.65;100.00;99621.50;5072963;28;20029;-67
2022/12/11 11:22:22;;;;;;;26.38;9.07;;;;;;;0.72;100.00;99625.28;5072515;28;20430;-67
2022/12/11 11:24:52;;;;;;;29.52;10.30;;;;;;;0.76;99.94;99624.06;5073574;28;20167;-67
2022/12/11 11:27:32;;;;;;;23.08;8.70;;;;;;;0.80;99.41;99628.09;5073061;28;20225;-67
2022/12/11 11:30:02;;;;;;;32.28;9.75;;;;;;;0.92;99.08;99633.31;5071564;28;20040;-68
2022/12/11 11:32:31;;;;;;;30.08;10.02;;;;;;;0.78;99.41;99626.53;5074133;28;20100;-66
2022/12/11 11:35:11;;;;;;;30.35;10.98;;;;;;;0.85;99.12;99630.34;5073261;28;20028;-66
2022/12/11 11:37:40;;;;;;;25.67;11.38;;;;;;;0.87;99.16;99625.81;5073027;28;20028;-67
2022/12/11 11:40:17;;;;;;;24.20;9.60;;;;;;;0.85;100.00;99632.97;5072425;28;20097;-67
2022/12/11 11:42:51;;;;;;;29.30;10.88;;;;;;;0.90;100.00;99632.56;5072723;28;20044;-66
2022/12/11 11:45:23;;;;;;;18.23;9.50;;;;;;;0.73;99.86;99623.50;5072804;28;20044;-66
2022/12/11 11:47:59;;;;;;;22.63;9.70;;;;;;;0.91;99.43;99621.13;5072280;28;20074;-67
2022/12/11 11:50:34;;;;;;;22.60;10.13;;;;;;;0.72;97.89;99617.41;5071925;28;20036;-67
2022/12/11 11:53:11;;;;;;;29.48;11.45;;;;;;;0.79;98.87;99625.63;5072556;28;20455;-66
2022/12/11 11:55:52;;;;;;;26.50;9.50;;;;;;;0.87;100.00;99619.72;5072182;28;20036;-67
2022/12/11 11:58:24;;;;;;;21.60;10.00;;;;;;;0.94;99.52;99613.84;5083683;28;20115;-66
2022/12/11 12:00:53;;;;;;;24.60;9.00;;;;;;;0.89;98.62;99615.19;5074543;28;20039;-65
2022/12/11 12:03:21;;;;;;;23.27;9.07;;;;;;;0.97;98.40;99615.38;5072328;28;20029;-67
2022/12/11 12:06:06;;;;;;;21.77;8.57;;;;;;;1.02;98.55;99615.84;5065229;28;20431;-67
2022/12/11 12:08:45;;;;;;;24.35;9.90;;;;;;;1.08;98.70;99610.06;5072201;28;20089;-67
2022/12/11 12:11:31;;;;;;;16.73;8.77;;;;;;;1.06;96.51;99614.63;5071239;28;20102;-68
2022/12/11 12:14:09;;;;;;;22.25;9.48;;;;;;;0.95;96.12;99609.44;5072237;28;20039;-67
2022/12/11 12:17:20;;;;;;;22.02;9.15;;;;;;;0.79;95.79;99608.09;5071695;28;20124;-67
2022/12/11 12:20:07;;;;;;;26.15;10.30;;;;;;;0.92;97.07;99612.31;5067856;28;20059;-66
2022/12/11 12:22:54;;;;;;;20.70;9.20;;;;;;;0.96;97.92;99611.94;5071513;28;20565;-68
2022/12/11 12:25:41;;;;;;;23.52;9.90;;;;;;;0.99;99.02;99608.22;5072043;28;20285;-67
2022/12/11 12:28:35;;;;;;;30.88;10.65;;;;;;;1.00;99.20;99604.66;5071651;28;20032;-66
2022/12/11 12:31:15;;;;;;;32.35;10.38;;;;;;;1.03;99.59;99597.34;5066598;28;20382;-66
2022/12/11 12:33:59;;;;;;;28.83;10.15;;;;;;;1.05;98.18;99594.59;5060898;28;20036;-66
2022/12/11 12:36:52;;;;;;;28.00;10.60;;;;;;;1.11;98.28;99604.59;5063476;28;20039;-67
2022/12/11 12:39:47;;;;;;;27.45;11.20;;;;;;;1.07;96.95;99600.53;5061757;28;20037;-67
2022/12/11 12:42:26;;;;;;;19.10;8.57;;;;;;;1.18;95.71;99592.63;5062273;28;20032;-67
2022/12/11 12:45:00;;;;;;;19.17;8.77;;;;;;;0.97;97.13;99592.59;5062347;28;20037;-67
2022/12/11 12:47:30;;;;;;;22.23;9.45;;;;;;;0.97;97.57;99584.72;5061393;28;20537;-66
2022/12/11 12:49:59;;;;;;;22.20;9.07;;;;;;;1.06;97.52;99578.75;5060481;28;20114;-67
2022/12/11 12:52:36;;;;;;;18.70;7.97;;;;;;;1.16;97.55;99576.16;5061728;28;20404;-67
2022/12/11 12:55:23;;;;;;;22.30;7.93;;;;;;;1.22;96.16;99575.63;5060634;28;20044;-67
2022/12/11 12:57:53;;;;;;;19.50;8.65;;;;;;;1.25;95.46;99579.81;5061642;28;20060;-66
2022/12/11 13:00:36;;;;;;;20.90;9.55;;;;;;;1.25;95.12;99575.41;5062161;28;20029;-65
2022/12/11 13:03:16;;;;;;;22.52;8.32;;;;;;;1.16;95.37;99586.66;5060637;28;20155;-65
2022/12/11 13:05:53;;;;;;;20.13;7.55;;;;;;;1.23;95.66;99584.34;5059556;28;20041;-64
2022/12/11 13:08:28;;;;;;;19.42;8.65;;;;;;;1.14;94.14;99585.97;5060173;28;20040;-64
2022/12/11 13:11:06;;;;;;;19.65;9.48;;;;;;;1.24;93.70;99584.22;5059982;28;20025;-66
2022/12/11 13:13:41;;;;;;;21.27;8.43;;;;;;;1.26;94.17;99573.59;5061954;28;20047;-63
2022/12/11 13:16:14;;;;;;;20.75;8.35;;;;;;;1.16;94.75;99578.78;5060975;28;20071;-64
2022/12/11 13:18:41;;;;;;;14.38;7.20;;;;;;;1.20;94.52;99572.31;5062165;28;20478;-65
2022/12/11 13:21:31;;;;;;;18.30;7.57;;;;;;;1.14;93.95;99572.84;5060794;28;20024;-66
2022/12/11 13:24:11;;;;;;;19.08;7.78;;;;;;;1.07;93.43;99579.56;5061056;28;20375;-64
2022/12/11 13:26:37;;;;;;;26.13;8.98;;;;;;;0.97;94.34;99573.41;5062708;28;20029;-66
2022/12/11 13:29:03;;;;;;;18.90;7.95;;;;;;;0.96;94.63;99574.38;5063360;28;20039;-63
2022/12/11 13:31:35;;;;;;;16.38;8.77;;;;;;;1.03;95.64;99573.72;5060768;28;20543;-65
2022/12/11 13:34:30;;;;;;;22.98;8.07;;;;;;;0.99;94.37;99574.97;5060331;28;20317;-64
2022/12/11 13:36:56;;;;;;;17.42;7.82;;;;;;;1.01;94.28;99570.41;5058073;28;20091;-66
2022/12/11 13:39:28;;;;;;;18.73;9.02;;;;;;;1.05;95.51;99576.25;5060036;28;20052;-66
2022/12/11 13:42:01;;;;;;;26.05;10.23;;;;;;;1.12;95.70;99584.44;5059968;28;20051;-65
2022/12/11 13:44:31;;;;;;;19.17;9.52;;;;;;;1.07;95.63;99584.81;5066756;28;20032;-65
2022/12/11 13:46:59;;;;;;;25.48;10.85;;;;;;;1.01;95.92;99582.69;5063209;28;20028;-66
2022/12/11 13:49:28;;;;;;;18.95;8.50;;;;;;;0.90;95.78;99588.00;5066658;28;20052;-66
2022/12/11 13:51:58;;;;;;;23.42;8.90;;;;;;;0.90;96.06;99593.25;5062530;28;20163;-66
2022/12/11 13:54:27;;;;;;;19.63;8.35;;;;;;;0.92;97.23;99601.84;5072683;28;20094;-67
2022/12/11 13:57:17;;;;;;;18.00;8.40;;;;;;;1.02;97.77;99595.69;5074926;28;20028;-68
2022/12/11 13:59:52;;;;;;;16.75;7.90;;;;;;;1.11;97.85;99598.47;5068857;28;20040;-66
2022/12/11 14:02:34;;;;;;;18.58;8.35;;;;;;;1.06;97.13;99594.47;5074673;28;20397;-66
2022/12/11 14:05:04;;;;;;;17.42;8.20;;;;;;;1.08;96.17;99596.97;5073559;28;20397;-66
2022/12/11 14:07:32;;;;;;;25.73;9.68;;;;;;;1.05;96.87;99597.22;5074722;28;20040;-66
2022/12/11 14:10:08;;;;;;;25.83;7.55;;;;;;;1.06;96.76;99601.50;5074691;28;20040;-66
2022/12/11 14:12:35;;;;;;;23.40;9.35;;;;;;;0.95;96.90;99604.19;5074714;28;20522;-66
2022/12/11 14:15:03;;;;;;;20.33;8.50;;;;;;;0.85;96.71;99600.66;5073408;28;20516;-65
2022/12/11 14:17:34;;;;;;;18.13;7.95;;;;;;;0.98;98.10;99602.16;5074609;28;20044;-65
2022/12/11 14:20:02;;;;;;;17.58;7.90;;;;;;;1.04;97.71;99611.28;5074629;28;20071;-65
2022/12/11 14:22:29;;;;;;;24.63;9.82;;;;;;;1.11;97.77;99609.84;5074487;28;20478;-65
2022/12/11 14:24:57;;;;;;;23.50;9.07;;;;;;;1.13;97.64;99615.78;5074782;28;20086;-65
2022/12/11 14:27:25;;;;;;;22.75;9.13;;;;;;;1.15;97.69;99621.72;5074667;28;20186;-65
2022/12/11 14:29:51;;;;;;;19.98;9.38;;;;;;;1.16;98.23;99623.38;5075058;28;20067;-65
2022/12/11 14:32:23;;;;;;;26.77;10.70;;;;;;;1.07;97.55;99626.78;5074765;28;20432;-65
2022/12/11 14:34:50;;;;;;;20.08;9.05;;;;;;;1.04;98.20;99624.41;5075117;28;20495;-65
2022/12/11 14:37:18;;;;;;;19.02;9.07;;;;;;;1.00;97.54;99633.50;5074572;28;20020;-66
2022/12/11 14:39:57;;;;;;;21.38;9.20;;;;;;;1.02;97.25;99634.19;5074378;28;20080;-66
2022/12/11 14:42:25;;;;;;;21.88;8.98;;;;;;;0.94;98.35;99629.59;5074270;28;20040;-64
2022/12/11 14:45:01;;;;;;;23.15;9.20;;;;;;;0.96;97.80;99630.28;5074365;28;20045;-65
2022/12/11 14:47:31;;;;;;;19.55;9.48;;;;;;;0.78;98.73;99630.03;5074319;28;20059;-65
2022/12/11 14:50:14;;;;;;;23.20;10.05;;;;;;;0.68;98.06;99626.47;5074066;28;20547;-65
2022/12/11 14:52:50;;;;;;;17.30;7.75;;;;;;;0.67;100.00;99632.69;5074098;28;20128;-65
2022/12/11 14:55:24;;;;;;;18.45;8.20;;;;;;;0.78;100.00;99639.66;5073669;28;20051;-65
2022/12/11 14:57:56;;;;;;;22.38;8.35;;;;;;;0.85;99.84;99643.47;5073887;28;20040;-66
2022/12/11 15:00:29;;;;;;;21.88;9.73;;;;;;;0.94;100.00;99647.94;5073583;28;20040;-66
2022/12/11 15:03:05;;;;;;;14.23;8.25;;;;;;;1.01;100.00;99645.66;5073856;28;20174;-65
2022/12/11 15:05:32;;;;;;;16.77;7.10;;;;;;;0.85;99.80;99642.59;5073783;28;20088;-68
2022/12/11 15:08:11;;;;;;;20.63;8.05;;;;;;;0.88;98.75;99637.13;5073728;28;20040;-66
2022/12/11 15:10:41;;;;;;;18.05;8.05;;;;;;;0.86;100.00;99644.31;5073343;28;20043;-67
2022/12/11 15:13:08;;;;;;;15.32;8.35;;;;;;;0.84;99.22;99640.94;5073636;28;20033;-64
2022/12/11 15:15:44;;;;;;;20.33;9.60;;;;;;;0.82;99.59;99644.53;5073557;28;20048;-67
2022/12/11 15:18:37;;;;;;;18.95;7.53;;;;;;;0.68;98.74;99639.59;5073987;28;20056;-68
2022/12/11 15:21:08;;;;;;;19.60;7.53;;;;;;;0.61;98.69;99650.72;5072901;28;20037;-67
2022/12/11 15:23:50;;;;;;;15.23;6.95;;;;;;;0.40;99.02;99646.25;5071821;28;20043;-68
2022/12/11 15:26:16;;;;;;;18.33;7.28;;;;;;;0.34;99.42;99651.97;5062454;28;20029;-67
2022/12/11 15:28:41;;;;;;;19.15;7.38;;;;;;;0.29;99.50;99656.75;5072958;28;20493;-68
2022/12/11 15:31:24;;;;;;;22.98;8.52;;;;;;;0.21;100.00;99651.28;5071149;28;20041;-68
2022/12/11 15:33:50;;;;;;;22.50;7.82;;;;;;;0.12;99.53;99660.69;5073109;28;20576;-67
2022/12/11 15:36:33;;;;;;;18.13;7.40;;;;;;;0.09;100.00;99666.16;5072694;28;20043;-65
2022/12/11 15:38:59;;;;;;;15.18;7.85;;;;;;;0.12;100.00;99652.81;5073094;28;20043;-67
2022/12/11 15:41:25;;;;;;;20.73;8.23;;;;;;;0.03;100.00;99658.78;5073841;28;20121;-66
2022/12/11 15:43:56;;;;;;;16.25;8.27;;;;;;;0.02;100.00;99653.69;5069670;28;20143;-64
2022/12/11 15:46:22;;;;;;;19.48;7.97;;;;;;;0.05;100.00;99663.91;5071530;28;20063;-67
2022/12/11 15:48:49;;;;;;;16.58;7.78;;;;;;;-0.02;100.00;99664.38;5062119;28;20347;-66
2022/12/11 15:51:16;;;;;;;14.75;7.80;;;;;;;-0.04;100.00;99661.06;5061034;28;20027;-67
2022/12/11 15:53:42;;;;;;;12.32;6.20;;;;;;;-0.14;100.00;99654.03;5065681;28;20036;-66
2022/12/11 15:56:17;;;;;;;17.67;7.93;;;;;;;-0.01;100.00;99662.59;5063641;28;20501;-66
2022/12/11 15:58:47;;;;;;;19.30;8.48;;;;;;;-0.03;100.00;99657.47;5061217;28;20036;-66
2022/12/11 16:01:13;;;;;;;11.00;7.22;;;;;;;-0.07;100.00;99661.28;5061400;28;20077;-66
2022/12/11 16:03:38;;;;;;;16.58;8.05;;;;;;;-0.13;100.00;99656.56;5057629;28;20029;-66
2022/12/11 16:06:04;;;;;;;18.10;7.80;;;;;;;0.02;100.00;99659.75;5055044;28;20037;-66
2022/12/11 16:08:29;;;;;;;16.50;7.35;;;;;;;0.05;100.00;99664.72;5055019;28;20119;-66
2022/12/11 16:10:55;;;;;;;17.42;7.85;;;;;;;0.07;100.00;99665.47;5060577;28;20041;-66
2022/12/11 16:13:20;;;;;;;11.98;6.63;;;;;;;0.02;100.00;99662.38;5062616;28;20049;-66
2022/12/11 16:15:49;;;;;;;15.02;6.75;;;;;;;0.03;100.00;99661.41;5063718;28;20028;-66
2022/12/11 16:18:18;;;;;;;15.40;7.32;;;;;;;-0.02;100.00;99653.91;5061081;28;20485;-67
2022/12/11 16:20:45;;;;;;;15.07;7.20;;;;;;;0.03;100.00;99671.88;5051297;28;20068;-66
2022/12/11 16:23:12;;;;;;;15.57;7.47;;;;;;;0.00;100.00;99664.28;5051801;28;20116;-67
2022/12/11 16:25:39;;;;;;;16.25;6.10;;;;;;;0.02;100.00;99661.53;5052226;28;20455;-68
2022/12/11 16:28:05;;;;;;;16.65;8.10;;;;;;;-0.01;100.00;99666.03;5052031;28;20693;-68
2022/12/11 16:30:34;;;;;;;16.85;7.07;;;;;;;-0.02;100.00;99659.16;5050985;28;20087;-68
2022/12/11 16:32:59;;;;;;;12.52;7.28;;;;;;;-0.07;100.00;99661.28;5050627;28;20409;-68
2022/12/11 16:35:25;;;;;;;16.73;7.43;;;;;;;-0.06;100.00;99659.53;5051902;28;20033;-68
2022/12/11 16:37:52;;;;;;;16.50;9.32;;;;;;;0.00;100.00;99666.91;5071050;28;20039;-68
2022/12/11 16:40:18;;;;;;;13.57;6.18;;;;;;;0.02;100.00;99657.13;5070818;28;20040;-69
2022/12/11 16:42:44;;;;;;;17.83;7.60;;;;;;;-0.03;100.00;99654.03;5071739;28;20040;-68
2022/12/11 16:45:21;;;;;;;17.25;8.52;;;;;;;-0.05;100.00;99648.94;5071766;28;20059;-67
2022/12/11 16:47:47;;;;;;;16.75;8.20;;;;;;;-0.14;100.00;99654.03;5071810;28;20613;-68
2022/12/11 16:50:14;;;;;;;19.60;8.18;;;;;;;-0.13;100.00;99647.84;5070936;28;20044;-67
2022/12/11 16:52:41;;;;;;;16.92;8.13;;;;;;;-0.17;100.00;99655.13;5071446;28;20052;-67
2022/12/11 16:55:07;;;;;;;19.70;8.70;;;;;;;-0.16;100.00;99648.91;5068601;28;20502;-68
2022/12/11 16:57:34;;;;;;;20.25;8.98;;;;;;;-0.23;100.00;99652.13;5053290;28;20603;-68
2022/12/11 17:00:00;;;;;;;19.50;8.30;;;;;;;-0.25;100.00;99652.25;5049977;28;20040;-64